createdAt,value
2022-10-05T00:02:32.174Z,99333.09
2022-10-05T00:05:23.347Z,99329.53
2022-10-05T00:08:18.727Z,99325.16
2022-10-05T00:11:07.997Z,99326.75
2022-10-05T00:13:53.636Z,99315.66
2022-10-05T00:16:39.035Z,99317.66
2022-10-05T00:19:36.554Z,99321.22
2022-10-05T00:22:24.248Z,99312.50
2022-10-05T00:25:20.969Z,99314.50
2022-10-05T00:28:16.851Z,99311.75
2022-10-05T00:31:03.185Z,99313.72
2022-10-05T00:33:48.865Z,99309.75
2022-10-05T00:36:34.544Z,99306.59
2022-10-05T00:39:21.455Z,99304.59
2022-10-05T00:42:34.385Z,99303.03
2022-10-05T00:45:36.006Z,99298.69
2022-10-05T00:48:43.629Z,99303.81
2022-10-05T00:51:33.255Z,99305.03
2022-10-05T00:54:44.287Z,99307.81
2022-10-05T00:57:35.617Z,99303.44
2022-10-05T01:00:25.988Z,99311.34
2022-10-05T01:03:22.770Z,99314.53
2022-10-05T01:06:27.527Z,99322.84
2022-10-05T01:09:18.386Z,99321.28
2022-10-05T01:12:03.420Z,99315.75
2022-10-05T01:14:53.813Z,99309.00
2022-10-05T01:18:04.005Z,99302.66
2022-10-05T01:21:13.538Z,99299.91
2022-10-05T01:24:29.379Z,99293.56
2022-10-05T01:27:37.095Z,99307.44
2022-10-05T01:30:23.386Z,99293.56
2022-10-05T01:33:33.917Z,99290.81
2022-10-05T01:36:39.818Z,99287.19
2022-10-05T01:39:54.498Z,99268.22
2022-10-05T01:42:59.724Z,99268.22
2022-10-05T01:46:13.477Z,99270.22
2022-10-05T01:49:23.974Z,99279.31
2022-10-05T01:52:09.030Z,99269.41
2022-10-05T01:55:03.394Z,99272.16
2022-10-05T01:58:07.855Z,99264.66
2022-10-05T02:01:21.775Z,99261.09
2022-10-05T02:04:29.588Z,99258.31
2022-10-05T02:07:55.786Z,99259.91
2022-10-05T02:10:53.363Z,99259.53
2022-10-05T02:13:38.528Z,99265.06
2022-10-05T02:16:39.169Z,99280.09
2022-10-05T02:19:34.203Z,99286.47
2022-10-05T02:22:41.252Z,99280.91
2022-10-05T02:25:31.717Z,99269.84
2022-10-05T02:28:27.943Z,99268.25
2022-10-05T02:31:31.372Z,99269.03
2022-10-05T02:34:43.415Z,99274.56
2022-10-05T02:38:17.245Z,99271.78
2022-10-05T02:41:12.198Z,99282.88
2022-10-05T02:44:04.532Z,99268.25
2022-10-05T02:47:08.574Z,99273.00
2022-10-05T02:50:07.759Z,99271.78
2022-10-05T02:53:07.374Z,99267.47
2022-10-05T02:56:07.094Z,99261.13
2022-10-05T02:59:13.812Z,99260.31
2022-10-05T03:02:18.844Z,99255.59
2022-10-05T03:05:32.016Z,99249.25
2022-10-05T03:08:39.962Z,99240.94
2022-10-05T03:11:44.567Z,99238.59
2022-10-05T03:14:49.072Z,99242.97
2022-10-05T03:17:44.702Z,99254.06
2022-10-05T03:20:38.954Z,99239.81
2022-10-05T03:23:46.222Z,99228.75
2022-10-05T03:26:55.555Z,99231.50
2022-10-05T03:29:48.507Z,99239.81
2022-10-05T03:32:36.806Z,99252.06
2022-10-05T03:35:45.047Z,99250.47
2022-10-05T03:38:30.488Z,99243.78
2022-10-05T03:41:21.458Z,99246.56
2022-10-05T03:44:28.482Z,99247.75
2022-10-05T03:47:35.979Z,99245.00
2022-10-05T03:50:44.510Z,99246.97
2022-10-05T03:53:37.681Z,99251.72
2022-10-05T03:56:35.630Z,99251.72
2022-10-05T03:59:32.776Z,99247.38
2022-10-05T04:02:26.255Z,99246.59
2022-10-05T04:05:12.464Z,99244.94
2022-10-05T04:08:16.773Z,99248.06
2022-10-05T04:11:09.630Z,99247.66
2022-10-05T04:14:03.157Z,99249.22
2022-10-05T04:16:57.886Z,99257.09
2022-10-05T04:20:00.222Z,99252.75
2022-10-05T04:22:54.658Z,99265.75
2022-10-05T04:25:50.712Z,99259.44
2022-10-05T04:29:03.428Z,99261.78
2022-10-05T04:31:51.652Z,99257.81
2022-10-05T04:34:52.218Z,99253.03
2022-10-05T04:37:59.038Z,99260.91
2022-10-05T04:40:44.486Z,99263.28
2022-10-05T04:43:49.264Z,99259.28
2022-10-05T04:46:41.966Z,99260.88
2022-10-05T04:49:44.610Z,99269.97
2022-10-05T04:52:48.334Z,99272.72
2022-10-05T04:55:49.207Z,99274.25
2022-10-05T04:59:02.751Z,99277.41
2022-10-05T05:02:14.050Z,99286.03
2022-10-05T05:05:18.441Z,99284.47
2022-10-05T05:08:25.279Z,99283.31
2022-10-05T05:11:58.674Z,99282.88
2022-10-05T05:15:10.386Z,99281.34
2022-10-05T05:18:31.052Z,99283.75
2022-10-05T05:21:44.574Z,99288.53
2022-10-05T05:24:49.216Z,99295.69
2022-10-05T05:28:10.081Z,99291.34
2022-10-05T05:31:24.425Z,99295.31
2022-10-05T05:34:31.230Z,99299.31
2022-10-05T05:37:28.560Z,99306.81
2022-10-05T05:40:19.692Z,99304.47
2022-10-05T05:43:27.152Z,99296.94
2022-10-05T05:46:38.829Z,99296.56
2022-10-05T05:49:44.022Z,99300.53
2022-10-05T05:52:41.380Z,99302.09
2022-10-05T05:55:35.666Z,99306.09
2022-10-05T05:58:31.773Z,99310.03
2022-10-05T06:01:44.181Z,99305.72
2022-10-05T06:04:46.687Z,99312.44
2022-10-05T06:07:36.028Z,99316.41
2022-10-05T06:10:30.637Z,99307.66
2022-10-05T06:13:35.774Z,99310.50
2022-10-05T06:16:40.464Z,99298.19
2022-10-05T06:19:28.039Z,99300.19
2022-10-05T06:22:27.976Z,99294.28
2022-10-05T06:25:13.522Z,99297.81
2022-10-05T06:28:12.517Z,99302.59
2022-10-05T06:31:39.082Z,99291.91
2022-10-05T06:34:53.717Z,99287.94
2022-10-05T06:38:08.500Z,99284.78
2022-10-05T06:41:23.229Z,99277.69
2022-10-05T06:44:16.684Z,99271.34
2022-10-05T06:47:29.420Z,99268.16
2022-10-05T06:50:38.555Z,99265.00
2022-10-05T06:54:04.117Z,99266.22
2022-10-05T06:57:00.058Z,99279.66
2022-10-05T06:59:46.155Z,99271.78
2022-10-05T07:02:50.408Z,99278.09
2022-10-05T07:05:42.104Z,99276.09
2022-10-05T07:08:33.695Z,99275.31
2022-10-05T07:11:38.592Z,99276.09
2022-10-05T07:14:48.370Z,99272.16
2022-10-05T07:17:45.646Z,99271.72
2022-10-05T07:20:45.593Z,99263.03
2022-10-05T07:23:46.870Z,99268.16
2022-10-05T07:26:46.961Z,99261.41
2022-10-05T07:29:51.772Z,99257.44
2022-10-05T07:32:45.241Z,99260.22
2022-10-05T07:36:14.055Z,99246.75
2022-10-05T07:39:07.995Z,99246.75
2022-10-05T07:42:08.064Z,99239.19
2022-10-05T07:45:01.822Z,99239.97
2022-10-05T07:47:54.407Z,99242.34
2022-10-05T07:50:54.255Z,99239.94
2022-10-05T07:53:51.258Z,99240.34
2022-10-05T07:56:41.832Z,99234.41
2022-10-05T07:59:44.700Z,99235.19
2022-10-05T08:02:44.504Z,99240.31
2022-10-05T08:05:37.177Z,99238.31
2022-10-05T08:08:43.036Z,99230.00
2022-10-05T08:11:37.743Z,99230.00
2022-10-05T08:14:47.441Z,99223.25
2022-10-05T08:17:45.588Z,99224.47
2022-10-05T08:20:35.428Z,99232.38
2022-10-05T08:23:39.433Z,99230.78
2022-10-05T08:26:29.340Z,99228.78
2022-10-05T08:29:20.836Z,99221.28
2022-10-05T08:32:22.567Z,99202.66
2022-10-05T08:35:21.237Z,99205.44
2022-10-05T08:38:17.202Z,99197.88
2022-10-05T08:41:31.975Z,99194.34
2022-10-05T08:44:44.065Z,99201.44
2022-10-05T08:47:42.035Z,99193.13
2022-10-05T08:50:49.960Z,99195.91
2022-10-05T08:54:19.458Z,99195.91
2022-10-05T08:57:39.697Z,99193.13
2022-10-05T09:00:35.709Z,99189.16
2022-10-05T09:03:42.824Z,99185.63
2022-10-05T09:06:52.315Z,99180.06
2022-10-05T09:09:37.718Z,99186.41
2022-10-05T09:12:47.764Z,99181.63
2022-10-05T09:15:42.669Z,99169.75
2022-10-05T09:19:03.510Z,99171.31
2022-10-05T09:21:57.745Z,99167.34
2022-10-05T09:24:53.175Z,99161.81
2022-10-05T09:27:49.393Z,99164.59
2022-10-05T09:30:57.748Z,99168.13
2022-10-05T09:34:01.644Z,99159.81
2022-10-05T09:37:05.446Z,99157.81
2022-10-05T09:40:09.517Z,99160.59
2022-10-05T09:43:16.403Z,99171.69
2022-10-05T09:46:32.928Z,99158.59
2022-10-05T09:49:36.939Z,99164.16
2022-10-05T09:52:47.378Z,99158.59
2022-10-05T09:55:47.148Z,99163.38
2022-10-05T09:59:16.901Z,99163.38
2022-10-05T10:02:19.336Z,99159.41
2022-10-05T10:05:43.914Z,99164.97
2022-10-05T10:09:27.151Z,99156.63
2022-10-05T10:12:30.045Z,99158.97
2022-10-05T10:15:40.397Z,99155.41
2022-10-05T10:18:48.770Z,99147.47
2022-10-05T10:21:50.456Z,99149.84
2022-10-05T10:24:55.863Z,99139.94
2022-10-05T10:28:07.098Z,99143.13
2022-10-05T10:31:14.139Z,99144.31
2022-10-05T10:34:05.834Z,99142.34
2022-10-05T10:37:16.464Z,99136.38
2022-10-05T10:40:36.903Z,99135.59
2022-10-05T10:43:53.189Z,99136.38
2022-10-05T10:46:59.976Z,99142.72
2022-10-05T10:50:07.340Z,99137.94
2022-10-05T10:53:10.046Z,99130.84
2022-10-05T10:56:22.709Z,99129.63
2022-10-05T10:59:30.720Z,99132.38
2022-10-05T11:02:39.075Z,99131.63
2022-10-05T11:05:32.034Z,99136.38
2022-10-05T11:08:54.660Z,99132.81
2022-10-05T11:11:53.323Z,99130.84
2022-10-05T11:14:52.380Z,99131.63
2022-10-05T11:17:58.175Z,99126.84
2022-10-05T11:21:10.708Z,99126.06
2022-10-05T11:24:15.092Z,99121.31
2022-10-05T11:27:08.328Z,99122.09
2022-10-05T11:30:25.715Z,99127.66
2022-10-05T11:33:32.863Z,99122.09
2022-10-05T11:36:42.728Z,99128.44
2022-10-05T11:39:44.546Z,99128.44
2022-10-05T11:42:39.711Z,99126.44
2022-10-05T11:45:46.605Z,99109.78
2022-10-05T11:48:51.306Z,99112.56
2022-10-05T11:52:02.045Z,99102.25
2022-10-05T11:55:15.931Z,99103.84
2022-10-05T11:58:01.673Z,99099.84
2022-10-05T12:00:56.612Z,99094.75
2022-10-05T12:03:59.620Z,99094.31
2022-10-05T12:07:27.067Z,99088.75
2022-10-05T12:10:38.722Z,99087.56
2022-10-05T12:13:43.506Z,99082.03
2022-10-05T12:16:41.856Z,99083.56
2022-10-05T12:19:42.092Z,99075.25
2022-10-05T12:22:50.727Z,99079.25
2022-10-05T12:25:45.729Z,99074.47
2022-10-05T12:28:46.236Z,99077.25
2022-10-05T12:31:53.511Z,99068.16
2022-10-05T12:35:11.624Z,99078.03
2022-10-05T12:38:34.512Z,99079.25
2022-10-05T12:41:27.500Z,99062.97
2022-10-05T12:44:50.216Z,99060.97
2022-10-05T12:47:52.868Z,99062.97
2022-10-05T12:50:48.266Z,99066.94
2022-10-05T12:54:05.886Z,99072.94
2022-10-05T12:56:51.531Z,99071.34
2022-10-05T12:59:36.654Z,99066.56
2022-10-05T13:02:42.382Z,99069.34
2022-10-05T13:05:35.841Z,99061.03
2022-10-05T13:08:45.962Z,99070.56
2022-10-05T13:12:03.764Z,99064.59
2022-10-05T13:15:02.104Z,99064.13
2022-10-05T13:18:00.149Z,99068.16
2022-10-05T13:21:27.634Z,99059.41
2022-10-05T13:24:23.542Z,99059.75
2022-10-05T13:27:44.998Z,99062.13
2022-10-05T13:30:30.496Z,99059.34
2022-10-05T13:33:24.542Z,99057.31
2022-10-05T13:36:21.892Z,99062.38
2022-10-05T13:39:26.048Z,99051.28
2022-10-05T13:42:18.686Z,99055.19
2022-10-05T13:45:19.985Z,99056.00
2022-10-05T13:48:11.404Z,99055.94
2022-10-05T13:51:15.264Z,99059.84
2022-10-05T13:54:05.108Z,99066.91
2022-10-05T13:57:05.436Z,99060.56
2022-10-05T13:59:55.821Z,99062.50
2022-10-05T14:02:47.484Z,99059.72
2022-10-05T14:05:32.989Z,99064.44
2022-10-05T14:08:18.806Z,99049.00
2022-10-05T14:11:36.325Z,99050.22
2022-10-05T14:14:29.579Z,99061.25
2022-10-05T14:17:33.439Z,99059.63
2022-10-05T14:20:21.788Z,99049.34
2022-10-05T14:23:18.482Z,99054.91
2022-10-05T14:26:19.561Z,99044.94
2022-10-05T14:29:14.146Z,99055.63
2022-10-05T14:32:03.251Z,99055.63
2022-10-05T14:35:05.224Z,99057.22
2022-10-05T14:37:53.905Z,99056.38
2022-10-05T14:40:39.340Z,99051.59
2022-10-05T14:43:24.430Z,99058.72
2022-10-05T14:46:23.276Z,99051.53
2022-10-05T14:49:21.536Z,99053.88
2022-10-05T14:52:37.489Z,99049.84
2022-10-05T14:55:53.066Z,99054.59
2022-10-05T14:59:05.255Z,99051.03
2022-10-05T15:02:02.821Z,99041.53
2022-10-05T15:04:53.488Z,99049.03
2022-10-05T15:07:45.668Z,99048.16
2022-10-05T15:10:47.120Z,99040.66
2022-10-05T15:13:37.547Z,99042.63
2022-10-05T15:16:26.644Z,99049.31
2022-10-05T15:19:16.280Z,99047.69
2022-10-05T15:22:18.883Z,99048.13
2022-10-05T15:25:27.035Z,99050.47
2022-10-05T15:28:48.378Z,99055.94
2022-10-05T15:31:53.739Z,99057.09
2022-10-05T15:34:51.276Z,99049.97
2022-10-05T15:37:44.621Z,99049.97
2022-10-05T15:43:19.661Z,99048.75
2022-10-05T15:46:20.288Z,99051.88
2022-10-05T15:49:16.309Z,99042.00
2022-10-05T15:52:37.015Z,99046.34
2022-10-05T15:55:43.869Z,99051.06
2022-10-05T15:58:35.869Z,99048.69
2022-10-05T16:01:33.844Z,99055.03
2022-10-05T16:04:52.333Z,99053.38
2022-10-05T16:08:08.173Z,99054.63
2022-10-05T16:10:55.919Z,99048.28
2022-10-05T16:13:50.329Z,99051.06
2022-10-05T16:16:44.274Z,99054.19
2022-10-05T16:19:46.388Z,99058.94
2022-10-05T16:22:59.384Z,99054.97
2022-10-05T16:26:18.065Z,99047.84
2022-10-05T16:29:30.657Z,99051.84
2022-10-05T16:32:24.584Z,99062.16
2022-10-05T16:35:17.361Z,99059.75
2022-10-05T16:38:31.656Z,99053.84
2022-10-05T16:41:43.122Z,99053.38
2022-10-05T16:44:36.101Z,99063.72
2022-10-05T16:47:48.200Z,99058.16
2022-10-05T16:50:54.986Z,99058.16
2022-10-05T16:53:46.541Z,99051.84
2022-10-05T16:56:40.251Z,99056.97
2022-10-05T16:59:34.979Z,99064.06
2022-10-05T17:02:39.737Z,99073.97
2022-10-05T17:05:31.790Z,99066.06
2022-10-05T17:08:26.754Z,99070.06
2022-10-05T17:11:23.849Z,99065.63
2022-10-05T17:14:24.536Z,99063.22
2022-10-05T17:17:47.540Z,99057.66
2022-10-05T17:20:49.395Z,99056.47
2022-10-05T17:24:00.964Z,99052.56
2022-10-05T17:27:03.060Z,99060.44
2022-10-05T17:29:52.480Z,99055.38
2022-10-05T17:32:56.245Z,99056.63
2022-10-05T17:36:09.198Z,99061.81
2022-10-05T17:39:13.468Z,99057.09
2022-10-05T17:42:34.408Z,99053.16
2022-10-05T17:45:19.710Z,99057.59
2022-10-05T17:48:10.601Z,99055.66
2022-10-05T17:51:14.620Z,99051.31
2022-10-05T17:54:36.917Z,99057.72
2022-10-05T17:57:25.365Z,99057.75
2022-10-05T18:01:04.279Z,99056.59
2022-10-05T18:03:51.438Z,99060.22
2022-10-05T18:06:44.814Z,99057.09
2022-10-05T18:09:33.120Z,99057.09
2022-10-05T18:12:18.273Z,99061.06
2022-10-05T18:15:06.468Z,99059.13
2022-10-05T18:17:57.406Z,99071.47
2022-10-05T18:21:14.884Z,99064.38
2022-10-05T18:24:20.625Z,99064.03
2022-10-05T18:27:11.849Z,99070.03
2022-10-05T18:30:03.658Z,99070.91
2022-10-05T18:33:04.539Z,99066.63
2022-10-05T18:35:58.879Z,99074.16
2022-10-05T18:38:55.117Z,99067.09
2022-10-05T18:42:07.116Z,99080.97
2022-10-05T18:45:00.160Z,99080.59
2022-10-05T18:47:53.628Z,99070.28
2022-10-05T18:50:48.179Z,99071.91
2022-10-05T18:53:46.769Z,99075.50
2022-10-05T18:56:41.240Z,99075.94
2022-10-05T19:00:11.300Z,99075.59
2022-10-05T19:03:25.805Z,99073.63
2022-10-05T19:06:44.869Z,99079.53
2022-10-05T19:10:13.642Z,99076.00
2022-10-05T19:13:37.910Z,99083.13
2022-10-05T19:16:26.635Z,99082.41
2022-10-05T19:19:47.283Z,99082.31
2022-10-05T19:22:52.974Z,99094.25
2022-10-05T19:26:14.028Z,99096.63
2022-10-05T19:29:27.084Z,99098.59
2022-10-05T19:32:39.055Z,99100.59
2022-10-05T19:36:02.195Z,99105.00
2022-10-05T19:38:59.955Z,99111.66
2022-10-05T19:41:52.102Z,99115.56
2022-10-05T19:44:49.865Z,99123.47
2022-10-05T19:48:01.212Z,99119.00
2022-10-05T19:50:58.636Z,99118.97
2022-10-05T19:53:47.070Z,99115.34
2022-10-05T19:56:34.371Z,99114.50
2022-10-05T19:59:24.503Z,99117.34
2022-10-05T20:02:14.561Z,99124.09
2022-10-05T20:05:07.054Z,99128.06
2022-10-05T20:07:52.226Z,99123.28
2022-10-05T20:10:37.765Z,99129.28
2022-10-05T20:13:23.173Z,99130.47
2022-10-05T20:16:35.269Z,99136.44
2022-10-05T20:19:53.241Z,99147.56
2022-10-05T20:22:46.186Z,99153.50
2022-10-05T20:25:32.062Z,99158.28
2022-10-05T20:28:31.170Z,99163.03
2022-10-05T20:31:20.148Z,99162.25
2022-10-05T20:34:05.611Z,99163.09
2022-10-05T20:36:51.932Z,99176.50
2022-10-05T20:39:38.474Z,99180.50
2022-10-05T20:42:24.232Z,99184.50
2022-10-05T20:45:10.816Z,99189.22
2022-10-05T20:47:56.362Z,99187.69
2022-10-05T20:50:41.643Z,99193.22
2022-10-05T20:53:26.879Z,99194.41
2022-10-05T20:56:12.252Z,99195.63
2022-10-05T20:58:57.278Z,99194.06
2022-10-05T21:01:48.025Z,99197.25
2022-10-05T21:04:40.981Z,99202.81
2022-10-05T21:07:27.006Z,99199.25
2022-10-05T21:10:14.217Z,99211.16
2022-10-05T21:13:02.868Z,99206.03
2022-10-05T21:15:48.155Z,99216.34
2022-10-05T21:18:33.602Z,99211.22
2022-10-05T21:21:19.019Z,99210.00
2022-10-05T21:24:05.251Z,99207.63
2022-10-05T21:26:50.727Z,99204.09
2022-10-05T21:29:37.129Z,99206.84
2022-10-05T21:32:22.514Z,99211.63
2022-10-05T21:35:08.089Z,99212.41
2022-10-05T21:37:53.586Z,99212.03
2022-10-05T21:40:39.080Z,99213.63
2022-10-05T21:43:25.342Z,99215.59
2022-10-05T21:46:15.018Z,99216.81
2022-10-05T21:49:00.164Z,99225.91
2022-10-05T21:51:45.488Z,99224.34
2022-10-05T21:54:32.746Z,99230.28
2022-10-05T21:57:18.661Z,99235.84
2022-10-05T22:00:07.907Z,99240.19
2022-10-05T22:02:53.031Z,99237.06
2022-10-05T22:05:38.335Z,99252.47
2022-10-05T22:08:33.626Z,99241.00
2022-10-05T22:11:19.366Z,99241.00
2022-10-05T22:14:04.893Z,99252.09
2022-10-05T22:16:50.395Z,99253.31
2022-10-05T22:19:35.508Z,99256.09
2022-10-05T22:22:22.057Z,99257.66
2022-10-05T22:25:07.870Z,99254.50
2022-10-05T22:27:53.503Z,99257.28
2022-10-05T22:30:39.467Z,99260.03
2022-10-05T22:33:24.929Z,99266.81
2022-10-05T22:36:10.397Z,99271.13
2022-10-05T22:38:55.602Z,99272.75
2022-10-05T22:41:41.003Z,99279.09
2022-10-05T22:44:26.095Z,99288.63
2022-10-05T22:47:11.788Z,99285.06
2022-10-05T22:49:57.274Z,99287.03
2022-10-05T22:52:42.679Z,99293.38
2022-10-05T22:55:28.027Z,99295.34
2022-10-05T22:58:13.304Z,99298.13
2022-10-05T23:01:03.773Z,99304.09
2022-10-05T23:03:48.948Z,99311.97
2022-10-05T23:06:34.359Z,99313.19
2022-10-05T23:09:20.016Z,99313.97
2022-10-05T23:12:05.579Z,99314.41
2022-10-05T23:14:50.967Z,99313.19
2022-10-05T23:17:38.901Z,99310.81
2022-10-05T23:20:24.735Z,99321.13
2022-10-05T23:23:09.996Z,99314.81
2022-10-05T23:26:01.920Z,99320.34
2022-10-05T23:28:47.527Z,99325.13
2022-10-05T23:31:33.612Z,99317.97
2022-10-05T23:34:19.165Z,99325.13
2022-10-05T23:37:04.849Z,99333.44
2022-10-05T23:39:50.035Z,99336.22
2022-10-05T23:42:35.512Z,99332.63
2022-10-05T23:45:20.763Z,99334.63
2022-10-05T23:48:05.999Z,99337.00
2022-10-05T23:50:51.297Z,99330.69
2022-10-05T23:53:37.165Z,99342.56
2022-10-05T23:56:22.478Z,99344.16
2022-10-05T23:59:07.689Z,99349.69
